Augusta, Maine
Current Conditions -  °F | °C
As of 9:53 PM on Thursday 18 Dec 2014 (Local Time) from KAUG Reporting Station
Broken Clouds Broken Clouds  
Wind Chill: 23°   Ceiling: 7000
Heat Index: 31°   Visibility: 10mi
Dew Point: 22°   Wind: 9mph
Humidity: 69%   Direction: 290°WNW
Pressure: 29.77"   Gusts: NA
Location:  44.32°N, 69.78°W
Report Text: KAUG 190253Z AUTO 29008KT 10SM BKN070 M01/M06 A2977 RMK AO2 SLP085 T10061056 53006
Loading
Personal Weather Stations






























Interactive Weather Map New forecast layout! Learn more

10-Day Weather Forecast

Advertisements
Track Severe Weather on mobile